createdAt,value
2019-05-21T00:01:43.627Z,34.60
2019-05-21T00:04:27.128Z,43.97
2019-05-21T00:06:44.108Z,42.13
2019-05-21T00:09:13.513Z,35.40
2019-05-21T00:12:02.243Z,35.40
2019-05-21T00:14:32.081Z,46.87
2019-05-21T00:17:02.065Z,43.47
2019-05-21T00:19:31.432Z,38.83
2019-05-21T00:22:00.801Z,34.57
2019-05-21T00:24:30.525Z,38.87
2019-05-21T00:27:00.211Z,29.70
2019-05-21T00:30:05.684Z,37.47
2019-05-21T00:33:10.783Z,48.80
2019-05-21T00:36:16.760Z,38.90
2019-05-21T00:39:22.132Z,39.90
2019-05-21T00:42:06.212Z,38.03
2019-05-21T00:44:38.546Z,26.90
2019-05-21T00:47:09.139Z,42.13
2019-05-21T00:49:38.486Z,39.93
2019-05-21T00:52:08.990Z,45.00
2019-05-21T00:54:38.911Z,30.87
2019-05-21T00:57:08.106Z,37.13
2019-05-21T00:59:37.536Z,36.73
2019-05-21T01:02:07.209Z,34.27
2019-05-21T01:04:37.220Z,40.57
2019-05-21T01:07:06.521Z,32.17
2019-05-21T01:09:35.956Z,38.70
2019-05-21T01:12:05.117Z,34.07
2019-05-21T01:14:34.728Z,36.87
2019-05-21T01:17:04.133Z,35.27
2019-05-21T01:19:34.196Z,26.97
2019-05-21T01:22:03.564Z,38.80
2019-05-21T01:24:32.628Z,36.37
2019-05-21T01:27:02.208Z,42.70
2019-05-21T01:29:31.784Z,26.37
2019-05-21T01:32:00.832Z,27.80
2019-05-21T01:34:30.167Z,24.93
2019-05-21T01:37:00.043Z,32.00
2019-05-21T01:39:28.997Z,33.30
2019-05-21T01:41:58.045Z,37.53
2019-05-21T01:44:26.987Z,38.03
2019-05-21T01:46:56.200Z,31.57
2019-05-21T01:49:25.511Z,39.00
2019-05-21T01:51:54.514Z,42.37
2019-05-21T01:54:23.698Z,39.50
2019-05-21T01:56:52.573Z,37.73
2019-05-21T01:59:21.693Z,55.67
2019-05-21T02:01:50.881Z,44.87
2019-05-21T02:04:19.829Z,38.60
2019-05-21T02:06:49.451Z,48.27
2019-05-21T02:09:18.748Z,41.03
2019-05-21T02:11:47.945Z,40.83
2019-05-21T02:14:16.882Z,41.57
2019-05-21T02:16:46.075Z,41.63
2019-05-21T02:19:15.544Z,44.03
2019-05-21T02:21:44.676Z,44.90
2019-05-21T02:24:13.861Z,44.93
2019-05-21T02:26:42.812Z,43.33
2019-05-21T02:29:12.088Z,44.53
2019-05-21T02:31:41.366Z,38.30
2019-05-21T02:34:10.473Z,40.73
2019-05-21T02:36:39.670Z,46.57
2019-05-21T02:39:08.905Z,39.33
2019-05-21T02:41:37.930Z,39.20
2019-05-21T02:44:06.942Z,23.33
2019-05-21T02:46:35.969Z,29.60
2019-05-21T02:49:04.917Z,22.20
2019-05-21T02:51:33.928Z,13.80
2019-05-21T02:54:02.951Z,15.10
2019-05-21T02:56:31.910Z,13.60
2019-05-21T02:59:00.921Z,12.00
2019-05-21T03:01:41.796Z,10.40
2019-05-21T03:04:11.061Z,11.60
2019-05-21T03:06:40.086Z,11.60
2019-05-21T03:09:09.105Z,14.80
2019-05-21T03:11:38.399Z,14.17
2019-05-21T03:14:07.713Z,15.00
2019-05-21T03:16:36.683Z,20.60
2019-05-21T03:19:05.616Z,17.63
2019-05-21T03:21:34.925Z,11.63
2019-05-21T03:24:04.201Z,10.00
2019-05-21T03:26:33.407Z,14.20
2019-05-21T03:29:02.937Z,10.80
2019-05-21T03:31:32.154Z,13.27
2019-05-21T03:34:01.432Z,12.00
2019-05-21T03:36:33.885Z,14.97
2019-05-21T03:39:01.528Z,17.83
2019-05-21T03:41:30.632Z,11.73
2019-05-21T03:43:59.625Z,15.43
2019-05-21T03:46:28.914Z,14.23
2019-05-21T03:48:57.852Z,16.90
2019-05-21T03:51:27.116Z,13.10
2019-05-21T03:53:56.254Z,10.50
2019-05-21T03:56:25.799Z,15.30
2019-05-21T03:58:54.694Z,12.17
2019-05-21T04:01:23.981Z,20.00
2019-05-21T04:03:52.935Z,7.50
2019-05-21T04:06:22.127Z,9.17
2019-05-21T04:08:51.141Z,14.97
2019-05-21T04:11:20.434Z,12.57
2019-05-21T04:13:49.626Z,10.13
2019-05-21T04:16:27.661Z,15.07
2019-05-21T04:19:03.360Z,11.40
2019-05-21T04:21:32.549Z,12.70
2019-05-21T04:24:01.742Z,12.30
2019-05-21T04:26:30.691Z,12.73
2019-05-21T04:28:59.567Z,16.33
2019-05-21T04:31:28.590Z,16.20
2019-05-21T04:33:57.758Z,12.83
2019-05-21T04:36:26.697Z,8.97
2019-05-21T04:38:55.587Z,9.40
2019-05-21T04:41:24.868Z,9.33
2019-05-21T04:43:54.060Z,14.17
2019-05-21T04:46:23.103Z,10.70
2019-05-21T04:48:52.640Z,11.93
2019-05-21T04:51:21.911Z,14.80
2019-05-21T04:53:50.933Z,13.63
2019-05-21T04:56:20.168Z,9.97
2019-05-21T04:58:49.364Z,9.57
2019-05-21T05:01:18.428Z,9.40
2019-05-21T05:03:47.394Z,8.83
2019-05-21T05:06:16.663Z,9.77
2019-05-21T05:08:45.681Z,8.20
2019-05-21T05:11:14.910Z,10.60
2019-05-21T05:13:44.037Z,10.97
2019-05-21T05:16:13.039Z,7.73
2019-05-21T05:18:41.981Z,7.43
2019-05-21T05:21:10.921Z,10.63
2019-05-21T05:23:40.201Z,9.03
2019-05-21T05:26:09.482Z,9.23
2019-05-21T05:28:38.491Z,10.80
2019-05-21T05:31:07.414Z,9.47
2019-05-21T05:33:36.685Z,9.53
2019-05-21T05:36:05.937Z,11.30
2019-05-21T05:38:34.957Z,6.90
2019-05-21T05:41:04.233Z,9.80
2019-05-21T05:43:33.509Z,10.70
2019-05-21T05:46:02.891Z,10.30
2019-05-21T05:48:56.916Z,8.43
2019-05-21T05:51:25.781Z,6.87
2019-05-21T05:53:57.977Z,6.20
2019-05-21T05:56:28.769Z,5.33
2019-05-21T05:58:58.212Z,6.30
2019-05-21T06:01:28.549Z,6.60
2019-05-21T06:03:57.824Z,5.20
2019-05-21T06:06:27.231Z,8.60
2019-05-21T06:08:56.500Z,5.47
2019-05-21T06:11:25.724Z,7.13
2019-05-21T06:13:54.923Z,7.00
2019-05-21T06:16:23.854Z,6.70
2019-05-21T06:18:53.112Z,6.90
2019-05-21T06:21:22.318Z,23.33
2019-05-21T06:24:13.467Z,5.30
2019-05-21T06:26:41.800Z,3.90
2019-05-21T06:29:10.753Z,7.33
2019-05-21T06:31:40.049Z,2.80
2019-05-21T06:34:09.070Z,6.13
2019-05-21T06:36:38.285Z,4.70
2019-05-21T06:39:08.165Z,6.00
2019-05-21T06:41:37.041Z,4.40
2019-05-21T06:44:06.094Z,4.30
2019-05-21T06:46:35.174Z,3.07
2019-05-21T06:49:04.542Z,8.17
2019-05-21T06:51:33.559Z,3.57
2019-05-21T06:54:02.795Z,4.20
2019-05-21T06:56:31.957Z,6.73
2019-05-21T06:59:01.266Z,3.23
2019-05-21T07:01:30.224Z,5.50
2019-05-21T07:03:59.198Z,3.13
2019-05-21T07:06:28.219Z,3.43
2019-05-21T07:08:57.218Z,2.90
2019-05-21T07:11:26.104Z,2.73
2019-05-21T07:13:55.397Z,2.20
2019-05-21T07:16:24.591Z,2.60
2019-05-21T07:19:12.741Z,2.37
2019-05-21T07:21:41.689Z,2.60
2019-05-21T07:24:11.052Z,1.60
2019-05-21T07:26:40.249Z,1.80
2019-05-21T07:29:09.378Z,21.70
2019-05-21T07:31:38.320Z,2.00
2019-05-21T07:34:07.665Z,2.30
2019-05-21T07:36:37.062Z,2.67
2019-05-21T07:39:06.943Z,2.30
2019-05-21T07:41:36.259Z,2.93
2019-05-21T07:44:05.340Z,2.00
2019-05-21T07:46:34.423Z,2.73
2019-05-21T07:49:03.478Z,2.23
2019-05-21T07:51:32.657Z,2.53
2019-05-21T07:54:01.686Z,2.60
2019-05-21T07:56:30.556Z,2.83
2019-05-21T07:58:59.511Z,6.20
2019-05-21T08:01:28.817Z,16.67
2019-05-21T08:03:57.715Z,4.43
2019-05-21T08:06:26.730Z,3.30
2019-05-21T08:09:11.578Z,3.47
2019-05-21T08:11:26.658Z,3.77
2019-05-21T08:13:55.528Z,2.50
2019-05-21T08:16:24.844Z,2.23
2019-05-21T08:18:54.113Z,4.03
2019-05-21T08:21:23.131Z,2.70
2019-05-21T08:23:52.082Z,3.30
2019-05-21T08:26:21.401Z,2.23
2019-05-21T08:28:50.345Z,3.60
2019-05-21T08:31:19.361Z,2.90
2019-05-21T08:33:48.325Z,2.67
2019-05-21T08:36:17.261Z,2.30
2019-05-21T08:38:46.319Z,6.70
2019-05-21T08:41:15.376Z,2.93
2019-05-21T08:43:44.405Z,2.30
2019-05-21T08:46:13.747Z,2.73
2019-05-21T08:48:42.792Z,5.70
2019-05-21T08:51:11.809Z,2.20
2019-05-21T08:53:40.837Z,2.10
2019-05-21T08:56:09.865Z,1.83
2019-05-21T08:58:39.121Z,2.33
2019-05-21T09:01:08.443Z,1.93
2019-05-21T09:03:37.750Z,2.10
2019-05-21T09:06:06.747Z,1.93
2019-05-21T09:08:35.779Z,1.90
2019-05-21T09:11:04.834Z,3.53
2019-05-21T09:13:34.201Z,2.40
2019-05-21T09:16:03.546Z,2.23
2019-05-21T09:18:32.763Z,1.90
2019-05-21T09:21:01.975Z,1.80
2019-05-21T09:23:31.019Z,2.37
2019-05-21T09:26:00.123Z,1.80
2019-05-21T09:28:29.151Z,2.13
2019-05-21T09:31:01.477Z,4.67
2019-05-21T09:33:29.039Z,2.00
2019-05-21T09:35:58.314Z,3.00
2019-05-21T09:38:27.283Z,2.50
2019-05-21T09:40:56.551Z,3.10
2019-05-21T09:43:25.583Z,1.83
2019-05-21T09:45:54.618Z,1.90
2019-05-21T09:48:23.653Z,2.10
2019-05-21T09:50:52.679Z,1.70
2019-05-21T09:53:21.633Z,2.23
2019-05-21T09:55:50.993Z,1.77
2019-05-21T09:58:28.152Z,2.10
2019-05-21T10:01:05.171Z,1.97
2019-05-21T10:03:36.296Z,1.83
2019-05-21T10:06:05.533Z,6.00
2019-05-21T10:08:37.224Z,2.03
2019-05-21T10:11:05.778Z,1.80
2019-05-21T10:13:34.883Z,1.37
2019-05-21T10:16:06.770Z,5.90
2019-05-21T10:18:35.992Z,1.57
2019-05-21T10:21:05.259Z,1.50
2019-05-21T10:23:34.266Z,2.00
2019-05-21T10:26:03.280Z,1.87
2019-05-21T10:28:32.560Z,1.83
2019-05-21T10:31:01.581Z,1.70
2019-05-21T10:33:30.851Z,2.03
2019-05-21T10:35:59.908Z,1.93
2019-05-21T10:38:29.127Z,1.40
2019-05-21T10:40:58.196Z,1.53
2019-05-21T10:43:27.485Z,2.70
2019-05-21T10:45:56.461Z,1.73
2019-05-21T10:48:25.499Z,1.10
2019-05-21T10:50:54.706Z,2.07
2019-05-21T10:53:23.716Z,1.57
2019-05-21T10:55:53.021Z,1.80
2019-05-21T10:58:22.295Z,1.57
2019-05-21T11:00:53.247Z,1.73
2019-05-21T11:03:36.062Z,2.30
2019-05-21T11:06:10.079Z,2.27
2019-05-21T11:08:36.109Z,1.47
2019-05-21T11:11:05.262Z,1.70
2019-05-21T11:13:34.290Z,2.03
2019-05-21T11:16:03.491Z,1.60
2019-05-21T11:18:32.594Z,1.80
2019-05-21T11:21:02.001Z,1.33
2019-05-21T11:23:31.278Z,1.60
2019-05-21T11:26:00.542Z,1.43
2019-05-21T11:28:29.866Z,2.73
2019-05-21T11:30:59.399Z,2.10
2019-05-21T11:33:28.976Z,1.50
2019-05-21T11:35:58.019Z,1.70
2019-05-21T11:38:39.494Z,1.90
2019-05-21T11:40:58.049Z,1.90
2019-05-21T11:43:27.054Z,1.60
2019-05-21T11:45:56.396Z,1.70
2019-05-21T11:48:25.409Z,6.80
2019-05-21T11:50:54.445Z,1.67
2019-05-21T11:53:23.780Z,1.70
2019-05-21T11:55:52.814Z,1.40
2019-05-21T11:58:21.777Z,1.37
2019-05-21T12:00:51.090Z,1.77
2019-05-21T12:03:19.952Z,2.00
2019-05-21T12:05:49.163Z,1.60
2019-05-21T12:08:18.106Z,2.13
2019-05-21T12:10:47.076Z,1.90
2019-05-21T12:13:20.239Z,1.50
2019-05-21T12:15:47.477Z,1.87
2019-05-21T12:18:16.788Z,1.50
2019-05-21T12:20:45.890Z,1.60
2019-05-21T12:23:15.205Z,1.60
2019-05-21T12:25:44.171Z,4.10
2019-05-21T12:28:13.530Z,1.40
2019-05-21T12:30:42.651Z,1.40
2019-05-21T12:33:11.670Z,3.87
2019-05-21T12:35:40.975Z,1.40
2019-05-21T12:38:10.052Z,1.20
2019-05-21T12:40:39.087Z,4.23
2019-05-21T12:43:08.109Z,1.10
2019-05-21T12:45:37.410Z,1.50
2019-05-21T12:48:06.538Z,1.53
2019-05-21T12:50:35.501Z,1.43
2019-05-21T12:53:04.549Z,1.80
2019-05-21T12:55:33.633Z,2.47
2019-05-21T12:58:02.644Z,1.67
2019-05-21T13:00:33.919Z,1.90
2019-05-21T13:03:03.195Z,6.13
2019-05-21T13:05:33.271Z,2.83
2019-05-21T13:08:02.567Z,2.57
2019-05-21T13:10:31.791Z,2.23
2019-05-21T13:13:00.832Z,1.37
2019-05-21T13:15:48.902Z,1.10
2019-05-21T13:18:18.170Z,1.10
2019-05-21T13:20:47.198Z,2.10
2019-05-21T13:23:16.146Z,1.60
2019-05-21T13:25:45.885Z,2.53
2019-05-21T13:28:14.838Z,1.10
2019-05-21T13:30:43.861Z,1.90
2019-05-21T13:33:12.879Z,1.77
2019-05-21T13:35:42.008Z,10.90
2019-05-21T13:38:13.562Z,12.47
2019-05-21T13:40:42.608Z,2.67
2019-05-21T13:43:11.703Z,1.87
2019-05-21T13:45:40.739Z,6.87
2019-05-21T13:48:09.759Z,6.40
2019-05-21T13:50:39.040Z,7.10
2019-05-21T13:53:07.972Z,5.80
2019-05-21T13:55:36.944Z,3.10
2019-05-21T13:58:06.266Z,2.23
2019-05-21T14:00:43.015Z,1.30
2019-05-21T14:03:12.890Z,1.80
2019-05-21T14:05:41.912Z,2.13
2019-05-21T14:08:10.930Z,2.47
2019-05-21T14:10:40.232Z,3.00
2019-05-21T14:13:09.372Z,2.30
2019-05-21T14:15:38.405Z,2.00
2019-05-21T14:18:07.714Z,5.23
2019-05-21T14:20:36.843Z,5.47
2019-05-21T14:23:06.151Z,8.20
2019-05-21T14:25:35.239Z,2.70
2019-05-21T14:28:04.415Z,2.83
2019-05-21T14:30:33.660Z,3.70
2019-05-21T14:33:02.883Z,3.60
2019-05-21T14:35:31.897Z,2.00
2019-05-21T14:38:00.854Z,1.87
2019-05-21T14:40:32.599Z,1.90
2019-05-21T14:43:01.258Z,1.97
2019-05-21T14:45:34.027Z,1.50
2019-05-21T14:48:01.013Z,1.30
2019-05-21T14:50:30.030Z,1.70
2019-05-21T14:52:59.057Z,1.60
2019-05-21T14:55:28.274Z,3.00
2019-05-21T14:57:58.901Z,4.40
2019-05-21T15:00:32.259Z,1.70
2019-05-21T15:03:01.568Z,1.00
2019-05-21T15:05:30.581Z,1.80
2019-05-21T15:07:59.878Z,1.47
2019-05-21T15:10:28.945Z,1.00
2019-05-21T15:13:17.353Z,3.27
2019-05-21T15:15:46.390Z,0.97
2019-05-21T15:18:21.061Z,2.20
2019-05-21T15:20:57.754Z,1.57
2019-05-21T15:23:27.049Z,1.77
2019-05-21T15:25:56.069Z,1.47
2019-05-21T15:28:25.130Z,1.10
2019-05-21T15:30:54.473Z,1.10
2019-05-21T15:33:23.504Z,1.20
2019-05-21T15:35:52.521Z,1.10
2019-05-21T15:38:21.856Z,1.87
2019-05-21T15:41:08.642Z,1.77
2019-05-21T15:43:22.225Z,4.93
2019-05-21T15:45:51.269Z,1.93
2019-05-21T15:48:20.470Z,1.60
2019-05-21T15:50:49.347Z,1.93
2019-05-21T15:53:18.649Z,7.40
2019-05-21T15:55:48.134Z,3.97
2019-05-21T15:58:17.512Z,4.10
2019-05-21T16:00:46.529Z,1.97
2019-05-21T16:03:15.489Z,2.77
2019-05-21T16:05:44.521Z,1.93
2019-05-21T16:08:13.805Z,1.73
2019-05-21T16:10:42.766Z,1.80
2019-05-21T16:13:11.977Z,1.50
2019-05-21T16:15:41.010Z,1.83
2019-05-21T16:18:10.051Z,2.50
2019-05-21T16:20:42.339Z,1.30
2019-05-21T16:23:09.837Z,1.60
2019-05-21T16:25:39.111Z,1.83
2019-05-21T16:28:08.496Z,3.83
2019-05-21T16:30:37.517Z,2.07
2019-05-21T16:33:06.810Z,3.03
2019-05-21T16:35:35.815Z,3.70
2019-05-21T16:38:04.877Z,2.10
2019-05-21T16:40:34.190Z,2.23
2019-05-21T16:43:03.333Z,2.80
2019-05-21T16:45:32.362Z,2.27
2019-05-21T16:48:01.548Z,2.70
2019-05-21T16:50:30.574Z,5.73
2019-05-21T16:52:59.872Z,3.00
2019-05-21T16:55:28.815Z,3.40
2019-05-21T16:57:57.789Z,1.73
2019-05-21T17:00:27.938Z,2.33
2019-05-21T17:02:57.240Z,3.27
2019-05-21T17:05:26.251Z,5.57
2019-05-21T17:07:55.131Z,6.43
2019-05-21T17:10:24.083Z,4.00
2019-05-21T17:12:53.154Z,4.17
2019-05-21T17:15:22.274Z,4.30
2019-05-21T17:17:51.304Z,3.37
2019-05-21T17:20:20.338Z,4.37
2019-05-21T17:22:49.818Z,2.80
2019-05-21T17:25:18.971Z,4.70
2019-05-21T17:27:48.002Z,3.13
2019-05-21T17:30:17.740Z,2.67
2019-05-21T17:32:46.766Z,2.63
2019-05-21T17:35:15.827Z,6.27
2019-05-21T17:37:44.947Z,2.73
2019-05-21T17:40:15.251Z,6.53
2019-05-21T17:42:44.262Z,4.97
2019-05-21T17:45:13.735Z,2.50
2019-05-21T17:47:43.022Z,4.30
2019-05-21T17:50:12.443Z,3.40
2019-05-21T17:52:41.587Z,9.30
2019-05-21T17:55:10.972Z,10.17
2019-05-21T17:57:40.957Z,3.13
2019-05-21T18:00:11.173Z,2.80
2019-05-21T18:02:40.874Z,2.23
2019-05-21T18:05:12.214Z,3.60
2019-05-21T18:07:41.810Z,3.30
2019-05-21T18:10:13.779Z,6.60
2019-05-21T18:12:43.390Z,4.83
2019-05-21T18:15:13.290Z,6.17
2019-05-21T18:17:42.591Z,3.57
2019-05-21T18:20:15.274Z,3.90
2019-05-21T18:22:45.608Z,2.70
2019-05-21T18:25:14.708Z,3.70
2019-05-21T18:27:43.649Z,3.00
2019-05-21T18:30:13.484Z,3.57
2019-05-21T18:32:42.504Z,4.00
2019-05-21T18:35:11.967Z,3.00
2019-05-21T18:37:41.014Z,3.40
2019-05-21T18:40:10.965Z,3.73
2019-05-21T18:42:40.288Z,4.93
2019-05-21T18:45:09.577Z,6.67
2019-05-21T18:47:38.595Z,3.60
2019-05-21T18:50:08.027Z,4.90
2019-05-21T18:52:37.054Z,4.30
2019-05-21T18:55:06.272Z,4.20
2019-05-21T18:57:35.396Z,12.00
2019-05-21T19:00:04.741Z,3.07
2019-05-21T19:02:34.126Z,3.93
2019-05-21T19:05:03.156Z,4.20
2019-05-21T19:07:32.189Z,3.77
2019-05-21T19:10:01.670Z,3.83
2019-05-21T19:12:38.168Z,4.03
2019-05-21T19:15:02.309Z,4.10
2019-05-21T19:17:35.462Z,4.40
2019-05-21T19:20:02.357Z,4.23
2019-05-21T19:22:31.552Z,3.70
2019-05-21T19:25:00.509Z,3.93
2019-05-21T19:27:29.719Z,8.53
2019-05-21T19:29:59.018Z,4.63
2019-05-21T19:32:28.140Z,4.87
2019-05-21T19:34:57.195Z,3.63
2019-05-21T19:37:26.475Z,4.20
2019-05-21T19:39:55.501Z,4.10
2019-05-21T19:42:24.595Z,4.07
2019-05-21T19:44:53.797Z,4.10
2019-05-21T19:47:23.094Z,3.50
2019-05-21T19:49:52.038Z,5.10
2019-05-21T19:52:21.097Z,4.00
2019-05-21T19:54:50.444Z,4.53
2019-05-21T19:57:19.851Z,4.70
2019-05-21T19:59:48.867Z,4.37
2019-05-21T20:02:18.929Z,4.73
2019-05-21T20:04:48.223Z,4.40
2019-05-21T20:07:17.447Z,4.50
2019-05-21T20:09:48.563Z,4.20
2019-05-21T20:12:18.576Z,4.43
2019-05-21T20:14:47.702Z,5.43
2019-05-21T20:17:17.439Z,4.97
2019-05-21T20:19:47.524Z,5.70
2019-05-21T20:22:17.672Z,5.37
2019-05-21T20:24:47.141Z,5.57
2019-05-21T20:27:17.071Z,7.07
2019-05-21T20:29:46.201Z,6.47
2019-05-21T20:32:17.057Z,6.30
2019-05-21T20:34:46.349Z,5.83
2019-05-21T20:37:18.910Z,7.03
2019-05-21T20:39:49.946Z,10.17
2019-05-21T20:42:21.210Z,9.73
2019-05-21T20:44:50.335Z,7.60
2019-05-21T20:47:19.731Z,8.80
2019-05-21T20:49:50.834Z,6.80
2019-05-21T20:52:20.186Z,9.43
2019-05-21T20:54:52.675Z,7.80
2019-05-21T20:57:23.209Z,11.20
2019-05-21T20:59:52.484Z,5.93
2019-05-21T21:02:21.622Z,6.20
2019-05-21T21:04:51.033Z,6.90
2019-05-21T21:07:20.559Z,5.03
2019-05-21T21:09:50.633Z,8.77
2019-05-21T21:12:20.561Z,6.83
2019-05-21T21:14:50.026Z,9.93
2019-05-21T21:17:19.495Z,6.93
2019-05-21T21:19:52.468Z,7.57
2019-05-21T21:22:21.818Z,7.33
2019-05-21T21:24:50.780Z,6.90
2019-05-21T21:27:20.017Z,8.20
2019-05-21T21:29:49.380Z,6.50
2019-05-21T21:32:19.138Z,6.43
2019-05-21T21:34:48.690Z,6.63
2019-05-21T21:37:18.081Z,13.03
2019-05-21T21:39:47.363Z,5.70
2019-05-21T21:42:16.411Z,5.93
2019-05-21T21:44:46.107Z,6.80
2019-05-21T21:47:15.741Z,6.30
2019-05-21T21:49:45.041Z,8.80
2019-05-21T21:52:15.093Z,6.07
2019-05-21T21:54:45.301Z,8.50
2019-05-21T21:57:14.546Z,6.00
2019-05-21T21:59:43.661Z,6.00
2019-05-21T22:02:36.321Z,9.13
2019-05-21T22:05:08.288Z,7.43
2019-05-21T22:07:38.825Z,7.23
2019-05-21T22:10:09.471Z,5.43
2019-05-21T22:12:38.713Z,5.30
2019-05-21T22:15:08.078Z,6.97
2019-05-21T22:17:37.728Z,6.33
2019-05-21T22:20:08.695Z,5.87
2019-05-21T22:22:38.196Z,5.63
2019-05-21T22:25:07.592Z,7.73
2019-05-21T22:27:36.541Z,7.00
2019-05-21T22:30:07.758Z,7.90
2019-05-21T22:32:37.123Z,5.80
2019-05-21T22:35:06.159Z,6.57
2019-05-21T22:37:35.280Z,6.77
2019-05-21T22:40:04.851Z,5.67
2019-05-21T22:42:34.738Z,11.13
2019-05-21T22:45:08.327Z,6.93
2019-05-21T22:47:35.633Z,5.57
2019-05-21T22:50:05.110Z,12.80
2019-05-21T22:52:34.249Z,10.50
2019-05-21T22:55:03.217Z,6.77
2019-05-21T22:57:32.249Z,5.80
2019-05-21T23:00:01.265Z,6.80
2019-05-21T23:02:32.706Z,6.60
2019-05-21T23:05:01.802Z,9.50
2019-05-21T23:07:31.214Z,6.47
2019-05-21T23:10:00.244Z,9.77
2019-05-21T23:12:29.448Z,7.70
2019-05-21T23:14:58.533Z,6.70
2019-05-21T23:17:27.632Z,6.30
2019-05-21T23:19:56.588Z,6.50
2019-05-21T23:22:26.221Z,7.70
2019-05-21T23:24:55.607Z,6.53
2019-05-21T23:27:25.518Z,6.00
2019-05-21T23:29:55.327Z,6.07
2019-05-21T23:32:24.744Z,7.57
2019-05-21T23:34:54.758Z,8.20
2019-05-21T23:37:25.307Z,7.10
2019-05-21T23:39:55.999Z,7.47
2019-05-21T23:42:29.483Z,5.43
2019-05-21T23:44:56.036Z,4.27
2019-05-21T23:47:26.421Z,8.17
2019-05-21T23:49:55.451Z,6.70
2019-05-21T23:52:25.191Z,7.83
2019-05-21T23:54:54.405Z,6.03
2019-05-21T23:57:28.023Z,6.00
2019-05-21T23:59:57.644Z,8.90
